Time;durP1;ratioP1;P1;durP2;ratioP2;P2;SDS_P1;SDS_P2;PMS_P1;PMS_P2;Temp;Humidity;BMP_temperature;BMP_pressure;BME280_temperature;BME280_humidity;BME280_pressure;Samples;Min_cycle;Max_cycle;Signal;HPM_P1;HPM_P2
2021/08/22 00:01:09;;;;;;;9.85;4.30;;;;;;;16.76;81.25;100278.47;1645601;87;21107;-80
2021/08/22 00:03:36;;;;;;;5.97;4.55;;;;;;;16.72;81.88;100276.93;1645730;87;21073;-76
2021/08/22 00:06:03;;;;;;;6.85;4.20;;;;;;;16.68;81.59;100280.27;1645771;87;21089;-75
2021/08/22 00:08:30;;;;;;;7.17;4.70;;;;;;;16.65;82.54;100280.91;1646050;87;21623;-77
2021/08/22 00:10:58;;;;;;;9.53;4.35;;;;;;;16.60;82.37;100287.83;1646315;85;21088;-75
2021/08/22 00:13:28;;;;;;;9.28;4.67;;;;;;;16.56;82.87;100277.87;1669062;85;21061;-75
2021/08/22 00:15:55;;;;;;;5.62;3.98;;;;;;;16.52;83.24;100283.46;1673096;85;21057;-75
2021/08/22 00:18:21;;;;;;;7.03;4.60;;;;;;;16.46;83.02;100287.32;1673232;85;21072;-76
2021/08/22 00:20:48;;;;;;;6.58;4.15;;;;;;;16.45;84.31;100296.25;1691149;84;21055;-76
2021/08/22 00:23:16;;;;;;;3.67;3.08;;;;;;;16.39;84.59;100296.61;1663435;85;21072;-74
2021/08/22 00:25:42;;;;;;;5.17;4.30;;;;;;;16.36;83.99;100292.80;1681419;85;21083;-77
2021/08/22 00:28:09;;;;;;;5.25;4.15;;;;;;;16.36;84.69;100303.44;1682920;84;21091;-76
2021/08/22 00:30:35;;;;;;;4.35;3.47;;;;;;;16.31;83.21;100298.84;1683098;85;21130;-75
2021/08/22 00:33:02;;;;;;;7.80;3.95;;;;;;;16.29;84.25;100300.28;1682947;85;21064;-75
2021/08/22 00:35:28;;;;;;;2.85;2.40;;;;;;;16.28;84.33;100307.00;1682875;84;21169;-74
2021/08/22 00:37:56;;;;;;;3.67;2.87;;;;;;;16.24;84.38;100305.02;1683249;85;21036;-75
2021/08/22 00:40:24;;;;;;;6.45;3.35;;;;;;;16.22;85.00;100308.67;1683088;85;21095;-77
2021/08/22 00:42:52;;;;;;;4.83;3.30;;;;;;;16.18;83.77;100301.84;1682759;85;21126;-75
2021/08/22 00:45:19;;;;;;;4.12;3.70;;;;;;;16.15;84.88;100301.08;1683069;84;21669;-77
2021/08/22 00:47:47;;;;;;;6.22;3.55;;;;;;;16.14;85.01;100305.98;1683210;85;22096;-75
2021/08/22 00:50:20;;;;;;;7.90;3.42;;;;;;;16.10;84.33;100304.48;1682644;85;21687;-77
2021/08/22 00:52:50;;;;;;;4.62;3.40;;;;;;;16.09;85.60;100306.73;1682974;85;21075;-75
2021/08/22 00:55:16;;;;;;;3.10;2.33;;;;;;;16.04;86.00;100304.81;1664140;85;21091;-77
2021/08/22 00:57:42;;;;;;;4.75;3.65;;;;;;;16.03;84.91;100311.53;1667171;85;21666;-76
2021/08/22 01:00:11;;;;;;;6.08;3.55;;;;;;;16.00;85.80;100307.25;1655479;86;21587;-76
2021/08/22 01:03:21;;;;;;;3.92;2.45;;;;;;;15.97;85.53;100309.25;1655047;86;21072;-76
2021/08/22 01:06:08;;;;;;;6.05;3.25;;;;;;;15.95;85.53;100313.31;1655296;86;21078;-76
2021/08/22 01:08:41;;;;;;;4.50;3.12;;;;;;;15.92;85.40;100320.12;1652561;86;21151;-76
2021/08/22 01:11:15;;;;;;;4.70;2.70;;;;;;;15.89;85.76;100325.59;1629177;86;21127;-76
2021/08/22 01:13:55;;;;;;;4.55;3.22;;;;;;;15.85;85.82;100325.37;1655110;86;21123;-76
2021/08/22 01:16:22;;;;;;;4.90;3.15;;;;;;;15.83;85.99;100326.80;1654074;86;21169;-75
2021/08/22 01:18:50;;;;;;;4.35;3.08;;;;;;;15.78;84.53;100325.33;1655052;85;21053;-77
2021/08/22 01:21:19;;;;;;;6.70;3.20;;;;;;;15.77;84.45;100334.25;1629180;86;21108;-76
2021/08/22 01:23:53;;;;;;;5.05;3.05;;;;;;;15.73;85.13;100333.55;1625052;87;21175;-75
2021/08/22 01:26:31;;;;;;;5.67;2.90;;;;;;;15.68;83.69;100333.77;1630079;87;21537;-75
2021/08/22 01:29:00;;;;;;;6.65;3.35;;;;;;;15.65;85.12;100336.61;1630352;88;21683;-75
2021/08/22 01:31:32;;;;;;;6.22;3.30;;;;;;;15.51;85.56;100320.11;1629993;88;21066;-74
2021/08/22 01:34:00;;;;;;;4.35;2.65;;;;;;;15.56;85.53;100347.72;1629957;88;21065;-75
2021/08/22 01:36:28;;;;;;;3.92;3.20;;;;;;;15.52;85.86;100335.55;1646795;86;21178;-75
2021/08/22 01:38:55;;;;;;;6.20;3.45;;;;;;;15.47;85.44;100340.26;1618995;88;22004;-76
2021/08/22 01:41:24;;;;;;;6.17;3.60;;;;;;;15.44;85.98;100345.75;1618791;88;21077;-75
2021/08/22 01:43:53;;;;;;;4.05;2.95;;;;;;;15.39;86.36;100343.78;1618845;88;21129;-75
2021/08/22 01:46:36;;;;;;;2.40;2.15;;;;;;;15.33;86.46;100348.11;1638088;87;21481;-74
2021/08/22 01:49:05;;;;;;;4.97;3.17;;;;;;;15.28;86.54;100349.20;1650124;86;21050;-75
2021/08/22 01:51:32;;;;;;;5.80;2.80;;;;;;;15.22;86.59;100342.03;1646872;86;21110;-74
2021/08/22 01:54:01;;;;;;;5.53;3.02;;;;;;;15.16;86.86;100346.33;1618858;88;21144;-75
2021/08/22 01:56:29;;;;;;;9.48;3.50;;;;;;;15.10;87.22;100347.52;1647030;87;22095;-75
2021/08/22 01:58:56;;;;;;;4.62;2.47;;;;;;;15.07;87.22;100348.55;1646717;86;21101;-75
2021/08/22 02:01:22;;;;;;;5.28;3.20;;;;;;;15.02;87.03;100348.38;1646846;86;21556;-74
2021/08/22 02:03:51;;;;;;;4.83;2.70;;;;;;;14.98;86.93;100343.72;1646601;86;21158;-75
2021/08/22 02:06:33;;;;;;;5.47;2.87;;;;;;;14.97;86.13;100350.42;1646893;87;21073;-75
2021/08/22 02:09:02;;;;;;;4.55;3.10;;;;;;;14.92;86.64;100348.48;1646760;86;21687;-76
2021/08/22 02:11:42;;;;;;;8.15;3.02;;;;;;;14.88;87.05;100346.44;1646981;86;21104;-77
2021/08/22 02:14:10;;;;;;;4.20;2.83;;;;;;;14.82;87.32;100352.92;1646686;87;21066;-77
2021/08/22 02:16:38;;;;;;;5.33;2.65;;;;;;;14.76;87.69;100349.25;1646838;86;21108;-76
2021/08/22 02:19:04;;;;;;;4.40;2.67;;;;;;;14.71;87.75;100353.94;1646496;87;21053;-78
2021/08/22 02:21:31;;;;;;;5.33;3.33;;;;;;;14.64;87.93;100352.53;1646857;87;21084;-76
2021/08/22 02:23:57;;;;;;;5.70;3.05;;;;;;;14.60;88.28;100358.91;1648777;84;21699;-76
2021/08/22 02:26:24;;;;;;;5.08;2.98;;;;;;;14.52;88.48;100353.98;1662804;86;21051;-76
2021/08/22 02:28:57;;;;;;;4.75;3.22;;;;;;;14.46;88.65;100359.09;1663060;86;21170;-76
2021/08/22 02:31:27;;;;;;;3.50;2.55;;;;;;;14.42;88.65;100364.62;1662974;86;21055;-75
2021/08/22 02:33:56;;;;;;;6.50;3.12;;;;;;;14.37;88.58;100362.20;1662997;86;21072;-76
2021/08/22 02:36:23;;;;;;;7.33;2.83;;;;;;;14.33;88.47;100367.72;1662691;86;21075;-73
2021/08/22 02:38:49;;;;;;;7.17;3.00;;;;;;;14.27;88.02;100364.92;1663077;86;21583;-76
2021/08/22 02:41:16;;;;;;;7.10;3.55;;;;;;;14.23;88.61;100369.97;1663206;86;21092;-75
2021/08/22 02:43:42;;;;;;;13.48;3.10;;;;;;;14.20;88.89;100366.16;1662887;86;21939;-74
2021/08/22 02:46:09;;;;;;;16.87;3.58;;;;;;;14.15;89.17;100368.14;1663163;86;21147;-74
2021/08/22 02:48:36;;;;;;;12.78;3.58;;;;;;;14.09;89.55;100365.33;1662842;86;21032;-74
2021/08/22 02:51:03;;;;;;;7.83;3.12;;;;;;;14.04;89.90;100366.88;1663216;86;21158;-74
2021/08/22 02:53:31;;;;;;;7.53;3.52;;;;;;;13.99;90.32;100363.59;1663227;86;21072;-74
2021/08/22 02:55:57;;;;;;;7.00;3.25;;;;;;;13.95;90.71;100372.61;1689832;84;21530;-75
2021/08/22 02:58:23;;;;;;;6.53;3.00;;;;;;;13.90;90.87;100369.33;1690846;84;21135;-74
2021/08/22 03:00:50;;;;;;;6.05;3.25;;;;;;;13.88;91.23;100376.48;1691431;84;21362;-76
2021/08/22 03:03:16;;;;;;;7.40;3.25;;;;;;;13.82;91.47;100374.11;1691018;84;21052;-76
2021/08/22 03:05:43;;;;;;;6.25;3.20;;;;;;;13.80;91.64;100379.94;1691869;84;22200;-76
2021/08/22 03:08:09;;;;;;;5.47;2.62;;;;;;;13.78;91.85;100377.38;1651604;85;21124;-76
2021/08/22 03:10:35;;;;;;;7.45;2.72;;;;;;;13.71;91.86;100376.39;1645697;87;21106;-74
2021/08/22 03:13:02;;;;;;;6.37;2.92;;;;;;;13.75;92.04;100389.41;1645913;87;22058;-76
2021/08/22 03:15:29;;;;;;;4.12;2.65;;;;;;;13.75;92.09;100391.20;1645725;87;21112;-73
2021/08/22 03:17:57;;;;;;;7.08;3.67;;;;;;;13.78;92.09;100395.03;1645778;87;21037;-74
2021/08/22 03:20:24;;;;;;;5.62;3.15;;;;;;;13.85;92.19;100392.52;1645796;87;21081;-74
2021/08/22 03:22:51;;;;;;;14.60;3.00;;;;;;;14.02;91.99;100393.89;1645548;87;21066;-74
2021/08/22 03:25:18;;;;;;;10.90;3.25;;;;;;;14.29;91.41;100400.14;1650409;86;21060;-73
2021/08/22 03:27:44;;;;;;;6.37;3.08;;;;;;;14.62;90.39;100398.13;1654356;86;21146;-71
2021/08/22 03:30:12;;;;;;;5.87;2.37;;;;;;;14.90;89.16;100394.47;1654585;86;21491;-74
2021/08/22 03:32:38;;;;;;;6.53;2.92;;;;;;;15.18;88.13;100395.71;1654305;86;21103;-75
2021/08/22 03:35:05;;;;;;;5.92;2.90;;;;;;;15.51;86.63;100400.20;1654534;86;21166;-73
2021/08/22 03:37:33;;;;;;;5.40;2.77;;;;;;;15.83;85.44;100404.30;1654301;86;21618;-74
2021/08/22 03:40:00;;;;;;;5.40;2.47;;;;;;;16.14;83.87;100404.77;1650247;86;21099;-76
2021/08/22 03:42:26;;;;;;;4.97;2.80;;;;;;;16.32;82.84;100401.56;1674929;85;21047;-75
2021/08/22 03:44:54;;;;;;;5.50;2.77;;;;;;;16.62;81.90;100393.63;1665273;86;21083;-74
2021/08/22 03:47:22;;;;;;;5.00;2.95;;;;;;;16.94;80.43;100397.09;1674581;85;21036;-75
2021/08/22 03:49:48;;;;;;;4.15;2.60;;;;;;;17.31;78.33;100404.20;1662383;86;21095;-77
2021/08/22 03:52:14;;;;;;;7.58;3.00;;;;;;;17.67;77.48;100400.69;1646020;86;21560;-75
2021/08/22 03:54:42;;;;;;;3.58;2.50;;;;;;;17.91;76.15;100404.52;1691036;83;21564;-76
2021/08/22 03:57:09;;;;;;;5.45;2.80;;;;;;;18.09;75.27;100402.98;1719093;83;21050;-75
2021/08/22 03:59:36;;;;;;;5.97;2.87;;;;;;;18.42;74.03;100406.59;1719052;83;21032;-77
2021/08/22 04:02:03;;;;;;;2.72;1.87;;;;;;;18.64;72.69;100398.89;1718991;83;21085;-75
2021/08/22 04:04:46;;;;;;;4.62;2.25;;;;;;;18.88;72.02;100398.23;1715957;83;21053;-77
2021/08/22 04:07:13;;;;;;;7.08;2.83;;;;;;;19.30;70.63;100396.25;1677687;83;21617;-77
2021/08/22 04:09:40;;;;;;;2.47;2.10;;;;;;;19.50;69.20;100394.39;1678722;84;21147;-77
2021/08/22 04:12:07;;;;;;;4.97;2.40;;;;;;;19.89;68.95;100397.91;1668604;84;21134;-78
2021/08/22 04:14:33;;;;;;;2.77;2.37;;;;;;;20.27;67.59;100390.27;1687110;84;21201;-78
2021/08/22 04:17:00;;;;;;;5.53;2.40;;;;;;;20.67;66.52;100389.16;1690382;84;21196;-76
2021/08/22 04:19:28;;;;;;;6.33;2.35;;;;;;;21.04;65.24;100389.89;1690215;84;21594;-77
2021/08/22 04:21:55;;;;;;;7.78;2.62;;;;;;;21.34;64.25;100391.17;1686092;84;21134;-76
2021/08/22 04:24:21;;;;;;;4.20;2.62;;;;;;;21.67;63.63;100396.22;1612273;87;21114;-77
2021/08/22 04:26:49;;;;;;;5.12;2.27;;;;;;;22.04;62.48;100389.24;1649212;87;21069;-76
2021/08/22 04:29:16;;;;;;;5.62;2.47;;;;;;;22.37;60.81;100395.92;1682569;84;21090;-76
2021/08/22 04:31:42;;;;;;;9.73;2.83;;;;;;;22.64;60.21;100394.62;1680144;84;21528;-80
2021/08/22 04:34:09;;;;;;;3.58;2.25;;;;;;;22.92;58.77;100390.95;1732391;81;21565;-79
2021/08/22 04:36:35;;;;;;;4.08;2.08;;;;;;;23.22;58.40;100394.23;1732322;82;21077;-77
2021/08/22 04:39:03;;;;;;;4.40;2.15;;;;;;;23.58;56.92;100399.61;1732504;82;21101;-77
2021/08/22 04:41:29;;;;;;;3.67;2.25;;;;;;;23.89;56.06;100398.27;1727256;82;21023;-76
2021/08/22 04:43:56;;;;;;;2.77;2.17;;;;;;;24.11;55.30;100399.91;1703692;84;21547;-78
2021/08/22 04:46:23;;;;;;;2.10;1.90;;;;;;;24.18;54.59;100402.87;1703501;84;21037;-77
2021/08/22 04:48:49;;;;;;;4.17;2.15;;;;;;;24.06;53.66;100406.17;1714439;82;21324;-77
2021/08/22 04:51:17;;;;;;;3.98;2.30;;;;;;;24.08;54.02;100407.73;1724161;82;21071;-77
2021/08/22 04:53:44;;;;;;;4.70;2.50;;;;;;;24.17;53.57;100410.09;1729537;82;21113;-77
2021/08/22 04:56:11;;;;;;;3.20;2.20;;;;;;;24.17;53.54;100409.25;1719339;81;21133;-78
2021/08/22 04:58:39;;;;;;;5.35;2.58;;;;;;;23.94;53.15;100405.42;1738272;81;21055;-76
2021/08/22 05:01:05;;;;;;;2.90;2.30;;;;;;;23.70;53.96;100411.62;1726117;81;21061;-78
2021/08/22 05:03:32;;;;;;;2.80;1.95;;;;;;;23.37;54.55;100413.55;1695282;81;21568;-77
2021/08/22 05:06:01;;;;;;;2.92;2.30;;;;;;;23.13;55.45;100411.98;1660998;85;21120;-78
2021/08/22 05:08:28;;;;;;;3.92;2.12;;;;;;;23.04;56.01;100418.98;1725038;82;21935;-78
2021/08/22 05:10:55;;;;;;;4.22;2.30;;;;;;;23.02;56.55;100421.45;1732541;81;21018;-77
2021/08/22 05:13:23;;;;;;;3.10;2.37;;;;;;;22.99;56.57;100421.22;1732782;82;21062;-77
2021/08/22 05:15:51;;;;;;;11.63;2.70;;;;;;;22.97;56.67;100420.45;1717297;82;21069;-79
2021/08/22 05:18:21;;;;;;;4.83;2.12;;;;;;;23.02;55.86;100429.50;1703752;84;21033;-77
2021/08/22 05:20:47;;;;;;;3.60;2.50;;;;;;;23.29;56.00;100422.77;1704144;84;21122;-79
2021/08/22 05:23:14;;;;;;;4.75;2.17;;;;;;;23.80;55.03;100427.32;1724696;82;21018;-79
2021/08/22 05:25:40;;;;;;;6.05;2.17;;;;;;;24.36;52.76;100422.73;1732592;82;21344;-80
2021/08/22 05:28:07;;;;;;;5.72;2.40;;;;;;;24.96;52.19;100420.01;1733248;82;21102;-79
2021/08/22 05:30:34;;;;;;;5.22;2.00;;;;;;;25.50;50.17;100431.15;1733510;82;21410;-78
2021/08/22 05:33:00;;;;;;;2.80;1.77;;;;;;;25.93;48.68;100417.62;1733522;82;22109;-77
2021/08/22 05:35:27;;;;;;;3.05;1.75;;;;;;;26.38;47.30;100430.28;1728696;81;21050;-80
2021/08/22 05:37:53;;;;;;;5.78;1.92;;;;;;;26.75;44.41;100426.63;1730976;81;21101;-79
2021/08/22 05:40:21;;;;;;;5.00;1.98;;;;;;;26.86;44.10;100426.41;1660734;85;21107;-78
2021/08/22 05:42:47;;;;;;;3.75;1.57;;;;;;;27.15;42.38;100418.55;1650253;85;21059;-79
2021/08/22 05:45:13;;;;;;;3.47;1.90;;;;;;;27.41;42.20;100424.00;1672274;85;21543;-79
2021/08/22 05:47:42;;;;;;;3.60;1.90;;;;;;;27.79;41.63;100418.65;1665771;85;21155;-79
2021/08/22 05:50:08;;;;;;;5.12;2.30;;;;;;;28.17;40.48;100417.81;1667852;85;21061;-79
2021/08/22 05:52:35;;;;;;;4.03;2.40;;;;;;;28.52;38.92;100415.89;1670668;84;21601;-78
2021/08/22 05:55:05;;;;;;;4.10;2.37;;;;;;;28.86;37.17;100420.34;1675968;84;21056;-78
2021/08/22 05:57:34;;;;;;;7.65;3.15;;;;;;;29.06;36.84;100420.35;1682839;84;21512;-77
2021/08/22 06:00:01;;;;;;;5.33;2.87;;;;;;;29.37;35.17;100423.73;1664784;85;21068;-78
2021/08/22 06:02:28;;;;;;;5.17;2.75;;;;;;;29.36;33.97;100423.41;1653507;85;21428;-78
2021/08/22 06:04:55;;;;;;;4.60;2.67;;;;;;;29.17;34.85;100428.70;1640612;85;21579;-79
2021/08/22 06:07:23;;;;;;;4.60;2.70;;;;;;;29.44;34.88;100426.09;1669292;84;21054;-76
2021/08/22 06:09:52;;;;;;;5.22;2.75;;;;;;;29.77;34.02;100422.00;1669667;84;21546;-74
2021/08/22 06:12:19;;;;;;;4.10;2.60;;;;;;;30.11;33.59;100420.82;1674295;84;21649;-76
2021/08/22 06:14:47;;;;;;;6.20;3.10;;;;;;;30.25;32.74;100424.66;1664282;85;21031;-76
2021/08/22 06:17:13;;;;;;;6.35;2.72;;;;;;;30.17;32.29;100430.98;1684514;83;21125;-75
2021/08/22 06:19:40;;;;;;;4.67;2.50;;;;;;;29.95;33.33;100429.04;1658607;85;21103;-78
2021/08/22 06:22:07;;;;;;;8.40;2.70;;;;;;;30.05;33.31;100425.62;1664564;85;21628;-75
2021/08/22 06:24:33;;;;;;;4.53;2.35;;;;;;;30.52;32.67;100423.34;1663935;85;21575;-73
2021/08/22 06:27:00;;;;;;;4.58;2.40;;;;;;;30.87;31.71;100415.12;1673284;84;21096;-79
2021/08/22 06:29:27;;;;;;;4.50;2.20;;;;;;;31.18;30.72;100421.53;1649085;85;21064;-80
2021/08/22 06:31:53;;;;;;;4.33;2.10;;;;;;;31.25;30.45;100421.11;1666186;85;21060;-80
2021/08/22 06:34:20;;;;;;;3.42;1.85;;;;;;;31.33;28.76;100415.58;1664862;84;21532;-81
2021/08/22 06:36:48;;;;;;;2.90;1.70;;;;;;;31.37;28.65;100420.98;1650011;87;21548;-80
2021/08/22 06:39:14;;;;;;;3.27;1.92;;;;;;;31.26;28.54;100417.34;1649871;87;21088;-81
2021/08/22 06:41:42;;;;;;;5.62;2.10;;;;;;;31.26;28.21;100421.43;1650445;87;21083;-82
2021/08/22 06:44:08;;;;;;;4.78;1.87;;;;;;;31.46;28.62;100423.98;1650620;87;21052;-82
2021/08/22 06:46:36;;;;;;;3.75;1.72;;;;;;;31.59;28.30;100428.80;1650466;86;21567;-81
2021/08/22 06:49:03;;;;;;;4.83;1.65;;;;;;;31.51;28.52;100428.34;1653274;86;21120;-79
2021/08/22 06:51:29;;;;;;;3.92;1.75;;;;;;;31.60;28.59;100425.02;1650914;86;21589;-80
2021/08/22 06:53:56;;;;;;;3.17;1.37;;;;;;;31.79;27.94;100426.34;1658262;84;21103;-79
2021/08/22 06:56:25;;;;;;;3.10;1.30;;;;;;;31.78;27.13;100423.30;1706308;84;21118;-82
2021/08/22 06:58:51;;;;;;;3.58;1.47;;;;;;;31.72;26.59;100428.13;1705874;84;21648;-81
2021/08/22 07:01:18;;;;;;;3.98;1.90;;;;;;;31.87;27.34;100428.14;1690387;84;21103;-79
2021/08/22 07:03:45;;;;;;;3.47;1.50;;;;;;;32.10;27.40;100426.69;1656019;85;21575;-77
2021/08/22 07:06:12;;;;;;;5.83;1.70;;;;;;;32.24;27.11;100429.06;1650727;85;21130;-76
2021/08/22 07:08:38;;;;;;;4.83;1.87;;;;;;;32.32;26.92;100429.77;1664423;84;21071;-75
2021/08/22 07:11:05;;;;;;;2.87;1.60;;;;;;;32.38;27.21;100425.45;1641983;86;22077;-76
2021/08/22 07:13:33;;;;;;;3.62;1.50;;;;;;;32.25;27.07;100428.84;1659094;85;21087;-75
2021/08/22 07:16:00;;;;;;;2.58;1.57;;;;;;;32.35;26.59;100428.57;1669389;83;21140;-74
2021/08/22 07:18:27;;;;;;;4.03;1.32;;;;;;;32.63;26.80;100434.14;1626674;87;21558;-75
2021/08/22 07:20:53;;;;;;;1.95;1.10;;;;;;;32.79;26.34;100427.07;1665601;84;21302;-75
2021/08/22 07:23:21;;;;;;;9.65;1.40;;;;;;;32.75;25.38;100427.66;1667312;84;21201;-79
2021/08/22 07:25:47;;;;;;;7.40;1.45;;;;;;;32.61;25.29;100433.48;1669239;84;21527;-75
2021/08/22 07:28:13;;;;;;;2.58;1.27;;;;;;;32.67;26.08;100432.73;1639244;86;21032;-77
2021/08/22 07:30:40;;;;;;;2.47;1.42;;;;;;;32.76;25.59;100430.69;1709649;82;21105;-76
2021/08/22 07:33:06;;;;;;;2.87;1.47;;;;;;;32.46;25.80;100427.20;1703237;84;21033;-76
2021/08/22 07:35:33;;;;;;;3.05;1.50;;;;;;;32.36;26.40;100432.44;1708986;82;21094;-75
2021/08/22 07:40:34;;;;;;;2.12;1.12;;;;;;;32.96;26.16;100427.63;1790854;79;22447;-74
2021/08/22 07:43:02;;;;;;;3.10;1.20;;;;;;;33.11;25.09;100429.49;1747243;80;21607;-74
2021/08/22 07:45:28;;;;;;;1.75;1.12;;;;;;;33.21;25.31;100428.09;1726944;82;22103;-74
2021/08/22 07:47:55;;;;;;;3.20;1.35;;;;;;;33.40;25.03;100430.64;1728645;82;21057;-74
2021/08/22 07:50:22;;;;;;;3.00;1.30;;;;;;;33.46;24.52;100429.02;1725702;82;21060;-75
2021/08/22 07:52:49;;;;;;;2.17;1.30;;;;;;;33.04;25.03;100433.49;1698596;82;20996;-74
2021/08/22 07:55:17;;;;;;;2.55;1.35;;;;;;;32.81;25.81;100434.54;1722488;82;21073;-75
2021/08/22 07:57:44;;;;;;;4.58;1.50;;;;;;;32.73;26.41;100431.92;1722818;82;21514;-73
2021/08/22 08:00:13;;;;;;;4.10;1.80;;;;;;;32.51;26.55;100438.39;1726335;82;21091;-74
2021/08/22 08:02:39;;;;;;;3.33;1.65;;;;;;;32.01;26.98;100440.92;1726340;82;21068;-75
2021/08/22 08:05:06;;;;;;;3.52;1.42;;;;;;;31.47;28.16;100437.94;1740207;82;21097;-74
2021/08/22 08:07:33;;;;;;;4.22;1.10;;;;;;;30.95;29.05;100442.79;1712099;82;21088;-74
2021/08/22 08:10:01;;;;;;;78.83;7.53;;;;;;;30.53;28.94;100447.64;1693571;84;21995;-74
2021/08/22 08:12:27;;;;;;;9.60;2.52;;;;;;;30.16;29.66;100443.38;1694048;84;21048;-74
2021/08/22 08:14:58;;;;;;;2.35;1.30;;;;;;;29.72;30.19;100440.65;1693739;84;21603;-73
2021/08/22 08:17:25;;;;;;;5.53;1.67;;;;;;;29.68;29.97;100434.73;1693832;84;21112;-73
2021/08/22 08:19:52;;;;;;;4.17;1.62;;;;;;;29.71;29.85;100429.47;1693260;84;21065;-73
2021/08/22 08:22:20;;;;;;;2.90;1.75;;;;;;;30.04;29.22;100429.34;1712775;83;21102;-74
2021/08/22 08:24:46;;;;;;;2.75;1.52;;;;;;;30.04;29.28;100426.63;1698322;84;21677;-74
2021/08/22 08:27:12;;;;;;;5.65;1.87;;;;;;;29.87;29.73;100428.05;1707544;84;21069;-73
2021/08/22 08:29:40;;;;;;;4.17;1.32;;;;;;;29.33;30.63;100427.80;1707229;84;21563;-73
2021/08/22 08:32:10;;;;;;;3.70;1.30;;;;;;;29.33;30.63;100427.80;1707348;84;21120;-75
2021/08/22 08:34:36;;;;;;;2.83;1.57;;;;;;;28.87;30.72;100430.16;1705199;84;21130;-74
2021/08/22 08:37:04;;;;;;;3.25;1.55;;;;;;;28.42;31.23;100436.84;1707102;84;21575;-74
2021/08/22 08:39:30;;;;;;;2.83;1.60;;;;;;;28.33;31.93;100432.42;1698748;83;21116;-74
2021/08/22 08:42:26;;;;;;;4.30;1.40;;;;;;;28.49;32.11;100424.37;1674871;84;21077;-75
2021/08/22 08:44:54;;;;;;;5.17;1.35;;;;;;;28.95;31.04;100423.92;1660732;84;21077;-74
2021/08/22 08:47:23;;;;;;;6.00;1.35;;;;;;;29.44;30.41;100424.73;1659003;86;22254;-74
2021/08/22 08:50:27;;;;;;;3.20;1.42;;;;;;;29.77;29.21;100419.28;1668414;84;21613;-77
2021/08/22 08:53:07;;;;;;;2.30;1.10;;;;;;;30.08;28.28;100425.26;1670631;84;21060;-75
2021/08/22 08:56:00;;;;;;;4.05;1.37;;;;;;;30.08;28.28;100425.26;1672326;84;21133;-75
2021/08/22 08:58:26;;;;;;;1.92;0.90;;;;;;;30.54;27.81;100421.30;1673501;84;21053;-72
2021/08/22 09:00:52;;;;;;;1.35;0.78;;;;;;;31.09;26.44;100424.30;1678639;85;21111;-72
2021/08/22 09:03:20;;;;;;;2.35;1.00;;;;;;;31.40;25.31;100419.23;1684503;84;21109;-75
2021/08/22 09:06:07;;;;;;;1.00;0.72;;;;;;;31.39;25.80;100416.20;1693698;84;21077;-72
2021/08/22 09:08:59;;;;;;;2.75;0.90;;;;;;;31.73;25.66;100422.50;1694171;84;21113;-71
2021/08/22 09:12:03;;;;;;;3.22;0.60;;;;;;;32.08;25.26;100419.22;1676147;84;21045;-74
2021/08/22 09:14:58;;;;;;;3.45;1.00;;;;;;;32.35;23.51;100421.23;1667084;84;22215;-73
2021/08/22 09:18:06;;;;;;;1.95;0.75;;;;;;;32.23;24.12;100421.91;1686330;84;21070;-73
2021/08/22 09:21:29;;;;;;;2.52;1.07;;;;;;;32.17;23.34;100424.89;1603941;84;21116;-74
2021/08/22 09:24:33;;;;;;;2.40;0.90;;;;;;;31.49;23.75;100423.59;1693536;84;21137;-74
2021/08/22 09:27:56;;;;;;;1.65;0.80;;;;;;;30.78;24.62;100424.86;1694018;84;21052;-74
2021/08/22 09:31:17;;;;;;;1.07;0.82;;;;;;;30.65;24.92;100423.61;1694008;84;21335;-74
2021/08/22 09:34:38;;;;;;;1.72;0.90;;;;;;;31.06;23.97;100416.52;1694345;84;21116;-74
2021/08/22 09:37:31;;;;;;;10.45;1.25;;;;;;;31.06;23.97;100416.52;1694287;84;21069;-74
2021/08/22 09:40:53;;;;;;;1.05;0.60;;;;;;;31.09;24.10;100412.06;1694408;83;21053;-73
2021/08/22 09:44:13;;;;;;;1.80;0.80;;;;;;;31.52;23.65;100412.89;1694552;84;21422;-74
2021/08/22 09:46:58;;;;;;;2.45;0.85;;;;;;;31.70;23.27;100408.41;1694079;84;21615;-74
2021/08/22 09:50:07;;;;;;;0.88;0.53;;;;;;;32.03;23.01;100415.70;1694224;84;21053;-75
2021/08/22 09:53:13;;;;;;;3.40;0.90;;;;;;;32.22;22.40;100415.62;1694113;84;21065;-72
2021/08/22 09:56:37;;;;;;;1.20;0.80;;;;;;;32.27;21.93;100411.80;1670944;84;21112;-73
2021/08/22 09:59:43;;;;;;;1.90;0.98;;;;;;;32.33;21.41;100409.67;1693317;84;21532;-73
2021/08/22 10:02:53;;;;;;;1.98;0.68;;;;;;;31.70;22.69;100401.59;1693996;84;21531;-73
2021/08/22 10:05:43;;;;;;;1.40;0.70;;;;;;;31.67;23.10;100404.71;1694256;84;21105;-74
2021/08/22 10:08:32;;;;;;;2.40;1.00;;;;;;;31.76;23.19;100404.94;1694414;84;21054;-73
2021/08/22 10:11:04;;;;;;;1.55;0.90;;;;;;;31.92;22.37;100402.02;1661044;84;21100;-73
2021/08/22 10:13:30;;;;;;;1.60;0.90;;;;;;;31.96;22.81;100406.09;1682542;84;21129;-74
2021/08/22 10:15:57;;;;;;;1.87;0.85;;;;;;;32.21;23.05;100400.32;1679438;84;21107;-72
2021/08/22 10:18:25;;;;;;;2.70;1.20;;;;;;;32.52;22.94;100396.48;1655753;85;21073;-73
2021/08/22 10:21:09;;;;;;;1.50;1.00;;;;;;;32.71;22.99;100403.17;1630293;87;21077;-73
2021/08/22 10:23:41;;;;;;;3.30;1.05;;;;;;;32.80;22.50;100400.11;1670915;85;21046;-74
2021/08/22 10:26:34;;;;;;;2.22;1.07;;;;;;;32.75;22.15;100403.95;1670878;85;21045;-74
2021/08/22 10:29:09;;;;;;;2.75;1.90;;;;;;;32.77;21.91;100405.97;1663453;85;22204;-74
2021/08/22 10:32:02;;;;;;;1.77;1.10;;;;;;;33.00;21.27;100402.19;1648938;85;21065;-74
2021/08/22 10:34:32;;;;;;;1.90;1.00;;;;;;;33.12;21.67;100400.63;1643571;86;21088;-74
2021/08/22 10:37:00;;;;;;;1.52;1.02;;;;;;;32.81;21.53;100399.09;1643536;87;21136;-73
2021/08/22 10:39:30;;;;;;;1.87;0.90;;;;;;;32.42;22.22;100402.72;1645193;86;21104;-73
2021/08/22 10:42:02;;;;;;;2.27;1.20;;;;;;;31.98;22.74;100406.74;1675331;84;22168;-74
2021/08/22 10:44:40;;;;;;;1.37;0.98;;;;;;;31.40;23.54;100411.08;1687494;84;21120;-72
2021/08/22 10:47:13;;;;;;;2.00;0.80;;;;;;;31.11;24.36;100411.38;1692800;84;21045;-73
2021/08/22 10:49:59;;;;;;;2.52;1.05;;;;;;;31.07;24.52;100408.68;1692893;84;21580;-73
2021/08/22 10:52:36;;;;;;;4.05;1.32;;;;;;;30.99;24.11;100416.93;1693092;84;21064;-74
2021/08/22 10:55:14;;;;;;;1.67;1.00;;;;;;;30.83;24.04;100419.72;1676979;84;21863;-72
2021/08/22 10:57:50;;;;;;;2.52;0.93;;;;;;;30.80;23.91;100418.22;1664996;86;21017;-71
2021/08/22 11:00:27;;;;;;;3.75;1.25;;;;;;;31.08;24.17;100421.27;1664840;86;21116;-74
2021/08/22 11:03:02;;;;;;;1.62;0.90;;;;;;;31.28;23.68;100413.94;1665082;86;21367;-74
2021/08/22 11:05:35;;;;;;;3.42;1.00;;;;;;;31.21;23.74;100404.83;1665177;86;21049;-76
2021/08/22 11:08:24;;;;;;;5.37;1.20;;;;;;;31.02;23.78;100404.31;1667407;84;22118;-77
2021/08/22 11:10:59;;;;;;;3.27;1.20;;;;;;;30.71;24.75;100416.09;1684485;84;21675;-77
2021/08/22 11:13:30;;;;;;;3.90;1.27;;;;;;;30.21;25.48;100416.03;1693412;84;21544;-76
2021/08/22 11:16:05;;;;;;;1.65;1.07;;;;;;;29.76;26.48;100414.02;1693512;84;21073;-78
2021/08/22 11:18:33;;;;;;;6.85;1.20;;;;;;;29.07;27.07;100404.44;1690343;84;21026;-77
2021/08/22 11:21:00;;;;;;;5.70;1.57;;;;;;;29.07;27.07;100404.44;1669629;84;21113;-76
2021/08/22 11:23:29;;;;;;;2.67;1.07;;;;;;;28.88;27.72;100404.77;1671479;84;21108;-76
2021/08/22 11:26:08;;;;;;;5.08;1.20;;;;;;;28.65;27.83;100405.42;1669499;84;21085;-77
2021/08/22 11:28:37;;;;;;;4.90;1.42;;;;;;;28.46;28.27;100409.78;1682424;84;21565;-76
2021/08/22 11:31:13;;;;;;;2.50;1.07;;;;;;;28.26;28.56;100413.78;1670731;84;21049;-76
2021/08/22 11:33:41;;;;;;;3.20;1.20;;;;;;;28.09;28.68;100406.09;1665236;84;21575;-76
2021/08/22 11:36:08;;;;;;;4.85;1.30;;;;;;;28.09;29.10;100404.74;1684034;84;21029;-76
2021/08/22 11:38:35;;;;;;;1.82;1.02;;;;;;;28.20;28.94;100403.94;1678445;84;21056;-74
2021/08/22 11:41:02;;;;;;;3.62;1.47;;;;;;;28.47;28.32;100393.88;1658519;84;21075;-76
2021/08/22 11:43:30;;;;;;;2.05;1.30;;;;;;;28.89;27.61;100387.98;1680939;85;21065;-75
2021/08/22 11:45:57;;;;;;;2.92;1.20;;;;;;;29.24;27.34;100390.86;1671547;85;21111;-75
2021/08/22 11:48:24;;;;;;;3.02;1.10;;;;;;;29.51;26.10;100386.07;1680704;85;21178;-76